createdAt,value
2022-07-30T00:05:58.042Z,5.00
2022-07-30T00:12:00.023Z,4.80
2022-07-30T00:18:03.686Z,5.25
2022-07-30T00:24:08.569Z,4.82
2022-07-30T00:30:11.186Z,4.65
2022-07-30T00:36:12.997Z,4.50
2022-07-30T00:42:16.451Z,4.60
2022-07-30T00:48:18.280Z,4.75
2022-07-30T00:54:21.501Z,4.88
2022-07-30T01:00:24.182Z,5.15
2022-07-30T01:06:26.475Z,4.93
2022-07-30T01:12:29.192Z,5.40
2022-07-30T01:18:52.269Z,4.35
2022-07-30T01:24:57.618Z,5.10
2022-07-30T01:31:01.241Z,5.45
2022-07-30T01:37:04.936Z,5.75
2022-07-30T01:43:08.158Z,5.70
2022-07-30T01:49:11.719Z,6.25
2022-07-30T01:55:18.553Z,6.60
2022-07-30T02:01:21.007Z,6.68
2022-07-30T02:07:24.652Z,6.50
2022-07-30T02:13:29.600Z,6.15
2022-07-30T02:19:39.863Z,7.05
2022-07-30T02:25:48.781Z,7.25
2022-07-30T02:31:53.213Z,6.95
2022-07-30T02:37:57.175Z,6.55
2022-07-30T02:44:00.399Z,6.82
2022-07-30T02:50:07.009Z,7.07
2022-07-30T02:56:11.078Z,7.68
2022-07-30T03:02:14.936Z,6.88
2022-07-30T03:08:19.953Z,7.28
2022-07-30T03:14:23.166Z,6.72
2022-07-30T03:20:30.791Z,7.70
2022-07-30T03:26:34.879Z,7.18
2022-07-30T03:32:37.622Z,7.32
2022-07-30T03:38:42.137Z,7.22
2022-07-30T03:44:45.838Z,7.15
2022-07-30T03:50:49.595Z,8.10
2022-07-30T03:56:51.559Z,8.25
2022-07-30T04:03:02.092Z,7.30
2022-07-30T04:09:09.141Z,7.32
2022-07-30T04:16:37.074Z,7.35
2022-07-30T04:21:34.064Z,8.63
2022-07-30T04:27:36.584Z,9.30
2022-07-30T04:33:38.687Z,8.00
2022-07-30T04:39:54.440Z,8.77
2022-07-30T04:45:56.651Z,9.55
2022-07-30T04:51:59.427Z,8.98
2022-07-30T04:58:02.642Z,8.32
2022-07-30T05:04:08.921Z,8.13
2022-07-30T05:10:14.328Z,8.43
2022-07-30T05:16:17.932Z,9.80
2022-07-30T05:22:20.027Z,8.25
2022-07-30T05:28:22.461Z,8.95
2022-07-30T05:34:24.301Z,9.88
2022-07-30T05:40:28.554Z,9.55
2022-07-30T05:47:03.100Z,8.57
2022-07-30T05:53:05.385Z,8.05
2022-07-30T05:59:25.753Z,9.60
2022-07-30T06:05:44.345Z,8.50
2022-07-30T06:11:46.450Z,8.43
2022-07-30T06:17:57.058Z,9.07
2022-07-30T06:24:23.407Z,9.07
2022-07-30T06:30:41.061Z,9.57
2022-07-30T06:36:42.951Z,10.10
2022-07-30T06:42:53.960Z,7.65
2022-07-30T06:49:16.081Z,8.93
2022-07-30T06:55:18.456Z,9.57
2022-07-30T07:01:24.980Z,7.72
2022-07-30T07:07:41.323Z,7.78
2022-07-30T07:13:46.309Z,7.57
2022-07-30T07:20:00.086Z,9.27
2022-07-30T07:26:05.566Z,10.52
2022-07-30T07:32:08.183Z,8.57
2022-07-30T07:38:12.435Z,8.20
2022-07-30T07:44:14.394Z,7.18
2022-07-30T07:50:19.102Z,8.60
2022-07-30T07:56:21.303Z,6.70
2022-07-30T08:02:23.687Z,7.13
2022-07-30T08:08:25.581Z,5.93
2022-07-30T08:14:46.065Z,6.35
2022-07-30T08:21:08.595Z,5.22
2022-07-30T08:27:10.597Z,5.43
2022-07-30T08:33:12.512Z,5.38
2022-07-30T08:39:14.767Z,5.13
2022-07-30T08:45:17.656Z,5.70
2022-07-30T08:51:20.246Z,5.18
2022-07-30T08:57:49.068Z,5.40
2022-07-30T09:03:51.858Z,6.15
2022-07-30T09:09:54.230Z,5.53
2022-07-30T09:15:56.689Z,6.65
2022-07-30T09:22:00.944Z,5.90
2022-07-30T09:28:30.326Z,5.53
2022-07-30T09:34:50.220Z,6.25
2022-07-30T09:41:29.086Z,4.38
2022-07-30T09:47:45.461Z,5.57
2022-07-30T09:53:56.989Z,5.45
2022-07-30T10:06:51.612Z,4.75
2022-07-30T10:13:04.860Z,5.00
2022-07-30T10:19:15.977Z,4.68
2022-07-30T10:25:48.895Z,4.13
2022-07-30T10:32:15.891Z,4.63
2022-07-30T10:38:20.597Z,3.92
2022-07-30T10:44:40.630Z,3.70
2022-07-30T10:50:56.974Z,2.47
2022-07-30T10:57:07.735Z,2.50
2022-07-30T11:03:16.295Z,2.10
2022-07-30T11:09:42.618Z,2.55
2022-07-30T11:16:01.522Z,2.13
2022-07-30T11:22:26.118Z,2.88
2022-07-30T11:28:45.741Z,3.03
2022-07-30T11:34:47.573Z,3.08
2022-07-30T11:40:49.330Z,3.00
2022-07-30T11:46:51.440Z,3.28
2022-07-30T11:52:57.009Z,2.83
2022-07-30T11:59:04.276Z,2.60
2022-07-30T12:05:06.708Z,2.78
2022-07-30T12:11:09.069Z,2.67
2022-07-30T12:17:15.220Z,2.78
2022-07-30T12:23:21.892Z,2.77
2022-07-30T12:29:23.947Z,2.90
2022-07-30T12:35:47.096Z,2.38
2022-07-30T12:41:50.883Z,2.63
2022-07-30T12:47:52.700Z,2.50
2022-07-30T12:53:57.020Z,2.20
2022-07-30T13:00:05.780Z,2.40
2022-07-30T13:06:19.453Z,2.00
2022-07-30T13:12:21.354Z,2.15
2022-07-30T13:18:23.105Z,2.20
2022-07-30T13:24:24.930Z,2.67
2022-07-30T13:30:26.663Z,2.85
2022-07-30T13:36:28.579Z,2.58
2022-07-30T13:42:30.456Z,3.17
2022-07-30T13:48:33.335Z,2.92
2022-07-30T13:54:35.088Z,2.60
2022-07-30T14:00:37.333Z,3.55
2022-07-30T14:06:39.093Z,3.13
2022-07-30T14:12:40.958Z,3.25
2022-07-30T14:18:42.709Z,3.63
2022-07-30T14:24:44.489Z,2.92
2022-07-30T14:30:46.306Z,2.60
2022-07-30T14:36:48.186Z,2.70
2022-07-30T14:42:49.961Z,3.00
2022-07-30T14:48:51.794Z,2.13
2022-07-30T14:54:53.967Z,2.38
2022-07-30T15:00:55.883Z,2.30
2022-07-30T15:06:58.503Z,2.40
2022-07-30T15:13:00.827Z,2.10
2022-07-30T15:19:02.597Z,2.50
2022-07-30T15:25:06.176Z,4.13
2022-07-30T15:31:08.023Z,3.38
2022-07-30T15:37:09.874Z,6.25
2022-07-30T15:43:11.658Z,6.72
2022-07-30T15:49:13.583Z,5.45
2022-07-30T15:55:15.714Z,5.47
2022-07-30T16:01:17.721Z,5.60
2022-07-30T16:07:19.903Z,6.43
2022-07-30T16:13:21.667Z,6.53
2022-07-30T16:19:23.527Z,6.32
2022-07-30T16:25:25.431Z,6.03
2022-07-30T16:41:16.847Z,5.60
2022-07-30T16:47:18.855Z,4.82
2022-07-30T17:00:39.016Z,4.20
2022-07-30T17:06:41.163Z,4.30
2022-07-30T17:12:50.833Z,4.07
2022-07-30T17:18:53.109Z,4.03
2022-07-30T17:24:55.412Z,5.78
2022-07-30T17:30:57.343Z,4.53
2022-07-30T17:40:27.387Z,6.00
2022-07-30T17:45:08.617Z,6.53
2022-07-30T17:51:37.847Z,5.65
2022-07-30T17:57:40.241Z,5.28
2022-07-30T18:03:45.118Z,5.55
2022-07-30T18:09:47.576Z,5.20
2022-07-30T18:15:49.519Z,5.40
2022-07-30T18:21:51.404Z,5.13
2022-07-30T18:27:53.756Z,5.10
2022-07-30T18:33:55.796Z,4.93
2022-07-30T18:39:57.552Z,5.47
2022-07-30T18:46:03.851Z,5.38
2022-07-30T18:52:09.835Z,5.47
2022-07-30T18:58:12.193Z,5.50
2022-07-30T19:04:14.048Z,6.90
2022-07-30T19:10:16.939Z,6.82
2022-07-30T19:16:18.752Z,5.93
2022-07-30T19:22:29.500Z,5.95
2022-07-30T19:28:33.364Z,6.22
2022-07-30T19:34:36.921Z,5.13
2022-07-30T19:40:39.489Z,6.20
2022-07-30T19:46:41.604Z,6.55
2022-07-30T19:52:51.610Z,5.43
2022-07-30T19:58:53.754Z,5.78
2022-07-30T20:04:55.523Z,5.50
2022-07-30T20:10:59.182Z,6.10
2022-07-30T20:17:02.342Z,5.63
2022-07-30T20:23:04.448Z,5.85
2022-07-30T20:29:09.171Z,5.45
2022-07-30T20:35:21.563Z,6.40
2022-07-30T20:41:23.465Z,6.57
2022-07-30T20:53:49.407Z,8.27
2022-07-30T20:59:51.469Z,8.95
2022-07-30T21:05:59.237Z,8.43
2022-07-30T21:12:02.451Z,7.60
2022-07-30T21:18:04.769Z,9.00
2022-07-30T21:24:11.452Z,7.80
2022-07-30T21:30:13.785Z,7.70
2022-07-30T21:36:15.673Z,7.25
2022-07-30T21:42:17.643Z,7.63
2022-07-30T21:48:32.888Z,7.80
2022-07-30T21:54:55.302Z,9.23
2022-07-30T22:21:51.237Z,11.45
2022-07-30T22:27:57.234Z,13.20
2022-07-30T22:33:59.088Z,13.13
2022-07-30T22:40:03.297Z,13.07
2022-07-30T22:46:14.794Z,11.82
2022-07-30T22:52:36.255Z,14.30
2022-07-30T22:58:38.116Z,14.50
2022-07-30T23:04:41.895Z,13.77
2022-07-30T23:10:44.531Z,13.38
2022-07-30T23:12:18.531Z,7.22
2022-07-30T23:16:50.417Z,11.55
2022-07-30T23:22:52.403Z,11.68
2022-07-30T23:28:54.253Z,13.98
2022-07-30T23:34:56.032Z,12.10
2022-07-30T23:41:04.234Z,13.75
2022-07-30T23:47:07.251Z,19.58
2022-07-30T23:53:09.073Z,18.35
2022-07-30T23:59:12.421Z,17.48
